sensor_id;sensor_type;location;lat;lon;timestamp;temperature;humidity
13713;DHT22;6928;50.546;7.120;2023-02-17T00:01:21;10.73;83.35
13713;DHT22;6928;50.546;7.120;2023-02-17T00:03:50;10.80;83.24
13713;DHT22;6928;50.546;7.120;2023-02-17T00:06:22;10.81;83.09
13713;DHT22;6928;50.546;7.120;2023-02-17T00:08:50;10.80;83.25
13713;DHT22;6928;50.546;7.120;2023-02-17T00:11:18;10.87;83.03
13713;DHT22;6928;50.546;7.120;2023-02-17T00:13:45;10.83;83.13
13713;DHT22;6928;50.546;7.120;2023-02-17T00:16:16;10.81;83.19
13713;DHT22;6928;50.546;7.120;2023-02-17T00:18:44;10.78;83.23
13713;DHT22;6928;50.546;7.120;2023-02-17T00:21:15;10.78;83.32
13713;DHT22;6928;50.546;7.120;2023-02-17T00:23:44;10.84;83.20
13713;DHT22;6928;50.546;7.120;2023-02-17T00:26:12;10.78;83.28
13713;DHT22;6928;50.546;7.120;2023-02-17T00:28:39;10.74;83.44
13713;DHT22;6928;50.546;7.120;2023-02-17T00:31:07;10.68;83.59
13713;DHT22;6928;50.546;7.120;2023-02-17T00:33:34;10.84;83.27
13713;DHT22;6928;50.546;7.120;2023-02-17T00:36:03;10.76;83.46
13713;DHT22;6928;50.546;7.120;2023-02-17T00:38:32;10.83;83.35
13713;DHT22;6928;50.546;7.120;2023-02-17T00:40:59;10.84;83.40
13713;DHT22;6928;50.546;7.120;2023-02-17T00:43:26;10.83;83.32
13713;DHT22;6928;50.546;7.120;2023-02-17T00:45:53;10.85;83.36
13713;DHT22;6928;50.546;7.120;2023-02-17T00:48:20;10.84;83.47
13713;DHT22;6928;50.546;7.120;2023-02-17T00:50:47;10.80;83.61
13713;DHT22;6928;50.546;7.120;2023-02-17T00:53:13;10.80;83.71
13713;DHT22;6928;50.546;7.120;2023-02-17T00:55:41;10.81;83.50
13713;DHT22;6928;50.546;7.120;2023-02-17T01:00:43;10.88;83.46
13713;DHT22;6928;50.546;7.120;2023-02-17T01:03:10;10.83;83.62
13713;DHT22;6928;50.546;7.120;2023-02-17T01:05:40;10.84;83.57
13713;DHT22;6928;50.546;7.120;2023-02-17T01:08:07;10.85;83.55
13713;DHT22;6928;50.546;7.120;2023-02-17T01:10:36;10.83;83.63
13713;DHT22;6928;50.546;7.120;2023-02-17T01:13:05;10.81;83.76
13713;DHT22;6928;50.546;7.120;2023-02-17T01:15:36;10.76;83.92
13713;DHT22;6928;50.546;7.120;2023-02-17T01:18:03;10.85;83.63
13713;DHT22;6928;50.546;7.120;2023-02-17T01:20:32;10.74;83.99
13713;DHT22;6928;50.546;7.120;2023-02-17T01:23:00;10.81;83.88
13713;DHT22;6928;50.546;7.120;2023-02-17T01:25:27;10.84;83.93
13713;DHT22;6928;50.546;7.120;2023-02-17T01:27:54;10.77;84.00
13713;DHT22;6928;50.546;7.120;2023-02-17T01:30:22;10.80;84.02
13713;DHT22;6928;50.546;7.120;2023-02-17T01:32:49;10.78;84.20
13713;DHT22;6928;50.546;7.120;2023-02-17T01:35:16;10.84;83.95
13713;DHT22;6928;50.546;7.120;2023-02-17T01:37:42;10.77;84.18
13713;DHT22;6928;50.546;7.120;2023-02-17T01:40:11;10.83;84.12
13713;DHT22;6928;50.546;7.120;2023-02-17T01:42:38;10.84;84.10
13713;DHT22;6928;50.546;7.120;2023-02-17T01:45:39;10.84;84.04
13713;DHT22;6928;50.546;7.120;2023-02-17T01:48:10;10.87;84.09
13713;DHT22;6928;50.546;7.120;2023-02-17T01:50:43;10.87;84.05
13713;DHT22;6928;50.546;7.120;2023-02-17T01:53:13;10.81;84.18
13713;DHT22;6928;50.546;7.120;2023-02-17T01:55:40;10.84;84.14
13713;DHT22;6928;50.546;7.120;2023-02-17T01:58:11;10.83;84.27
13713;DHT22;6928;50.546;7.120;2023-02-17T02:00:40;10.84;84.17
13713;DHT22;6928;50.546;7.120;2023-02-17T02:03:09;10.85;84.23
13713;DHT22;6928;50.546;7.120;2023-02-17T02:05:38;10.88;84.13
13713;DHT22;6928;50.546;7.120;2023-02-17T02:08:06;10.89;84.17
13713;DHT22;6928;50.546;7.120;2023-02-17T02:10:33;10.89;84.14
13713;DHT22;6928;50.546;7.120;2023-02-17T02:13:00;10.89;84.33
13713;DHT22;6928;50.546;7.120;2023-02-17T02:15:32;10.85;84.42
13713;DHT22;6928;50.546;7.120;2023-02-17T02:18:17;10.85;84.36
13713;DHT22;6928;50.546;7.120;2023-02-17T02:24:20;10.91;84.32
13713;DHT22;6928;50.546;7.120;2023-02-17T02:27:27;10.87;84.40
13713;DHT22;6928;50.546;7.120;2023-02-17T02:33:10;10.89;84.16
13713;DHT22;6928;50.546;7.120;2023-02-17T02:35:48;10.98;83.83
13713;DHT22;6928;50.546;7.120;2023-02-17T02:38:23;10.95;83.80
13713;DHT22;6928;50.546;7.120;2023-02-17T02:40:56;10.99;83.67
13713;DHT22;6928;50.546;7.120;2023-02-17T02:43:24;10.95;83.88
13713;DHT22;6928;50.546;7.120;2023-02-17T02:45:50;10.98;83.63
13713;DHT22;6928;50.546;7.120;2023-02-17T02:48:18;10.98;83.69
13713;DHT22;6928;50.546;7.120;2023-02-17T02:51:05;11.04;83.51
13713;DHT22;6928;50.546;7.120;2023-02-17T02:53:48;11.02;83.54
13713;DHT22;6928;50.546;7.120;2023-02-17T02:56:26;10.97;83.74
13713;DHT22;6928;50.546;7.120;2023-02-17T02:59:02;11.01;83.60
13713;DHT22;6928;50.546;7.120;2023-02-17T03:01:38;11.02;83.53
13713;DHT22;6928;50.546;7.120;2023-02-17T03:04:13;11.02;83.61
13713;DHT22;6928;50.546;7.120;2023-02-17T03:06:48;10.99;83.65
13713;DHT22;6928;50.546;7.120;2023-02-17T03:09:21;11.05;83.27
13713;DHT22;6928;50.546;7.120;2023-02-17T03:11:48;10.98;83.56
13713;DHT22;6928;50.546;7.120;2023-02-17T03:14:18;10.98;83.69
13713;DHT22;6928;50.546;7.120;2023-02-17T03:16:45;10.92;83.83
13713;DHT22;6928;50.546;7.120;2023-02-17T03:19:15;11.05;83.44
13713;DHT22;6928;50.546;7.120;2023-02-17T03:21:49;11.07;83.18
13713;DHT22;6928;50.546;7.120;2023-02-17T03:24:18;11.04;83.37
13713;DHT22;6928;50.546;7.120;2023-02-17T03:26:44;11.04;83.29
13713;DHT22;6928;50.546;7.120;2023-02-17T03:29:11;11.09;83.06
13713;DHT22;6928;50.546;7.120;2023-02-17T03:31:38;11.05;83.19
13713;DHT22;6928;50.546;7.120;2023-02-17T03:34:06;11.02;83.16
13713;DHT22;6928;50.546;7.120;2023-02-17T03:36:34;11.01;83.23
13713;DHT22;6928;50.546;7.120;2023-02-17T03:39:01;10.91;83.49
13713;DHT22;6928;50.546;7.120;2023-02-17T03:41:28;11.01;83.12
13713;DHT22;6928;50.546;7.120;2023-02-17T03:43:54;10.99;82.95
13713;DHT22;6928;50.546;7.120;2023-02-17T03:46:21;10.99;83.13
13713;DHT22;6928;50.546;7.120;2023-02-17T03:48:48;11.07;82.43
13713;DHT22;6928;50.546;7.120;2023-02-17T03:51:17;11.05;82.62
13713;DHT22;6928;50.546;7.120;2023-02-17T03:53:47;11.04;82.52
13713;DHT22;6928;50.546;7.120;2023-02-17T03:56:15;11.02;82.47
13713;DHT22;6928;50.546;7.120;2023-02-17T03:58:43;11.11;82.02
13713;DHT22;6928;50.546;7.120;2023-02-17T04:01:10;11.04;82.23
13713;DHT22;6928;50.546;7.120;2023-02-17T04:03:40;11.02;82.30
13713;DHT22;6928;50.546;7.120;2023-02-17T04:06:09;11.08;81.93
13713;DHT22;6928;50.546;7.120;2023-02-17T04:08:36;11.08;82.08
13713;DHT22;6928;50.546;7.120;2023-02-17T04:11:07;11.11;82.05
13713;DHT22;6928;50.546;7.120;2023-02-17T04:13:35;11.07;82.09
13713;DHT22;6928;50.546;7.120;2023-02-17T04:16:02;11.09;81.89
13713;DHT22;6928;50.546;7.120;2023-02-17T04:18:30;11.16;81.53
13713;DHT22;6928;50.546;7.120;2023-02-17T04:20:57;11.18;81.53
13713;DHT22;6928;50.546;7.120;2023-02-17T04:23:23;11.18;81.27
13713;DHT22;6928;50.546;7.120;2023-02-17T04:25:50;11.15;81.44
13713;DHT22;6928;50.546;7.120;2023-02-17T04:28:19;11.11;81.63
13713;DHT22;6928;50.546;7.120;2023-02-17T04:30:48;11.11;81.61
13713;DHT22;6928;50.546;7.120;2023-02-17T04:33:16;11.11;81.38
13713;DHT22;6928;50.546;7.120;2023-02-17T04:35:43;11.22;80.98
13713;DHT22;6928;50.546;7.120;2023-02-17T04:38:10;11.15;81.23
13713;DHT22;6928;50.546;7.120;2023-02-17T04:40:37;11.15;81.18
13713;DHT22;6928;50.546;7.120;2023-02-17T04:43:05;11.18;80.99
13713;DHT22;6928;50.546;7.120;2023-02-17T04:45:34;11.19;81.00
13713;DHT22;6928;50.546;7.120;2023-02-17T04:48:01;11.14;81.11
13713;DHT22;6928;50.546;7.120;2023-02-17T04:50:28;11.09;81.28
13713;DHT22;6928;50.546;7.120;2023-02-17T04:52:55;11.09;81.22
13713;DHT22;6928;50.546;7.120;2023-02-17T04:55:22;11.09;81.37
13713;DHT22;6928;50.546;7.120;2023-02-17T04:57:48;11.19;80.89
13713;DHT22;6928;50.546;7.120;2023-02-17T05:00:15;11.12;81.08
13713;DHT22;6928;50.546;7.120;2023-02-17T05:02:44;11.28;80.38
13713;DHT22;6928;50.546;7.120;2023-02-17T05:05:10;11.30;80.42
13713;DHT22;6928;50.546;7.120;2023-02-17T05:07:40;11.38;80.05
13713;DHT22;6928;50.546;7.120;2023-02-17T05:10:08;11.29;80.45
13713;DHT22;6928;50.546;7.120;2023-02-17T05:12:35;11.30;80.34
13713;DHT22;6928;50.546;7.120;2023-02-17T05:15:03;11.32;80.23
13713;DHT22;6928;50.546;7.120;2023-02-17T05:17:29;11.28;80.45
13713;DHT22;6928;50.546;7.120;2023-02-17T05:19:58;11.30;80.22
13713;DHT22;6928;50.546;7.120;2023-02-17T05:22:25;11.36;79.87
13713;DHT22;6928;50.546;7.120;2023-02-17T05:24:52;11.35;79.97
13713;DHT22;6928;50.546;7.120;2023-02-17T05:27:19;11.38;79.82
13713;DHT22;6928;50.546;7.120;2023-02-17T05:29:46;11.45;79.71
13713;DHT22;6928;50.546;7.120;2023-02-17T05:32:13;11.47;79.50
13713;DHT22;6928;50.546;7.120;2023-02-17T05:34:40;11.43;79.56
13713;DHT22;6928;50.546;7.120;2023-02-17T05:37:08;11.46;79.45
13713;DHT22;6928;50.546;7.120;2023-02-17T05:39:35;11.45;79.54
13713;DHT22;6928;50.546;7.120;2023-02-17T05:42:01;11.46;79.39
13713;DHT22;6928;50.546;7.120;2023-02-17T05:44:28;11.57;78.97
13713;DHT22;6928;50.546;7.120;2023-02-17T05:46:55;11.50;79.18
13713;DHT22;6928;50.546;7.120;2023-02-17T05:49:22;11.42;79.55
13713;DHT22;6928;50.546;7.120;2023-02-17T05:51:48;11.38;79.76
13713;DHT22;6928;50.546;7.120;2023-02-17T05:54:16;11.40;79.64
13713;DHT22;6928;50.546;7.120;2023-02-17T05:56:43;11.39;79.75
13713;DHT22;6928;50.546;7.120;2023-02-17T05:59:10;11.40;79.86
13713;DHT22;6928;50.546;7.120;2023-02-17T06:01:37;11.34;79.98
13713;DHT22;6928;50.546;7.120;2023-02-17T06:04:04;11.49;79.38
13713;DHT22;6928;50.546;7.120;2023-02-17T06:06:31;11.39;79.76
13713;DHT22;6928;50.546;7.120;2023-02-17T06:08:57;11.38;79.84
13713;DHT22;6928;50.546;7.120;2023-02-17T06:11:25;11.45;79.58
13713;DHT22;6928;50.546;7.120;2023-02-17T06:13:52;11.55;79.36
13713;DHT22;6928;50.546;7.120;2023-02-17T06:16:19;11.56;79.44
13713;DHT22;6928;50.546;7.120;2023-02-17T06:18:46;11.52;79.60
13713;DHT22;6928;50.546;7.120;2023-02-17T06:21:12;11.45;80.07
13713;DHT22;6928;50.546;7.120;2023-02-17T06:23:39;11.47;79.89
13713;DHT22;6928;50.546;7.120;2023-02-17T06:26:06;11.40;80.23
13713;DHT22;6928;50.546;7.120;2023-02-17T06:28:34;11.50;80.10
13713;DHT22;6928;50.546;7.120;2023-02-17T06:31:00;11.50;80.13
13713;DHT22;6928;50.546;7.120;2023-02-17T06:33:27;11.55;80.14
13713;DHT22;6928;50.546;7.120;2023-02-17T06:35:54;11.52;80.35
13713;DHT22;6928;50.546;7.120;2023-02-17T06:38:21;11.62;80.29
13713;DHT22;6928;50.546;7.120;2023-02-17T06:40:48;11.56;80.54
13713;DHT22;6928;50.546;7.120;2023-02-17T06:43:15;11.53;80.74
13713;DHT22;6928;50.546;7.120;2023-02-17T06:45:43;11.63;80.63
13713;DHT22;6928;50.546;7.120;2023-02-17T06:48:09;11.57;80.89
13713;DHT22;6928;50.546;7.120;2023-02-17T06:50:36;11.59;81.06
13713;DHT22;6928;50.546;7.120;2023-02-17T06:53:03;11.67;80.87
13713;DHT22;6928;50.546;7.120;2023-02-17T06:55:30;11.62;81.17
13713;DHT22;6928;50.546;7.120;2023-02-17T06:57:59;11.60;81.35
13713;DHT22;6928;50.546;7.120;2023-02-17T07:00:26;11.66;81.43
13713;DHT22;6928;50.546;7.120;2023-02-17T07:02:54;11.69;81.48
13713;DHT22;6928;50.546;7.120;2023-02-17T07:05:21;11.67;81.61
13713;DHT22;6928;50.546;7.120;2023-02-17T07:07:47;11.73;81.68
13713;DHT22;6928;50.546;7.120;2023-02-17T07:10:14;11.70;81.90
13713;DHT22;6928;50.546;7.120;2023-02-17T07:12:41;11.74;81.90
13713;DHT22;6928;50.546;7.120;2023-02-17T07:15:08;11.77;81.80
13713;DHT22;6928;50.546;7.120;2023-02-17T07:17:35;11.80;81.86
13713;DHT22;6928;50.546;7.120;2023-02-17T07:20:05;11.77;82.06
13713;DHT22;6928;50.546;7.120;2023-02-17T07:22:32;11.71;82.23
13713;DHT22;6928;50.546;7.120;2023-02-17T07:24:58;11.78;82.12
13713;DHT22;6928;50.546;7.120;2023-02-17T07:27:25;11.77;82.21
13713;DHT22;6928;50.546;7.120;2023-02-17T07:29:52;11.77;82.26
13713;DHT22;6928;50.546;7.120;2023-02-17T07:32:19;11.83;82.20
13713;DHT22;6928;50.546;7.120;2023-02-17T07:34:46;11.84;82.29
13713;DHT22;6928;50.546;7.120;2023-02-17T07:37:14;11.91;82.22
13713;DHT22;6928;50.546;7.120;2023-02-17T07:39:41;11.83;82.49
13713;DHT22;6928;50.546;7.120;2023-02-17T07:42:09;11.86;82.42
13713;DHT22;6928;50.546;7.120;2023-02-17T07:44:36;11.88;82.42
13713;DHT22;6928;50.546;7.120;2023-02-17T07:47:03;11.97;82.46
13713;DHT22;6928;50.546;7.120;2023-02-17T07:49:30;11.99;82.29
13713;DHT22;6928;50.546;7.120;2023-02-17T07:51:56;12.01;82.32
13713;DHT22;6928;50.546;7.120;2023-02-17T07:54:25;12.01;82.72
13713;DHT22;6928;50.546;7.120;2023-02-17T07:56:51;11.95;83.40
13713;DHT22;6928;50.546;7.120;2023-02-17T07:59:18;11.99;83.26
13713;DHT22;6928;50.546;7.120;2023-02-17T08:01:45;12.07;82.99
13713;DHT22;6928;50.546;7.120;2023-02-17T08:04:12;12.07;83.08
13713;DHT22;6928;50.546;7.120;2023-02-17T08:06:38;12.08;83.16
13713;DHT22;6928;50.546;7.120;2023-02-17T08:09:05;12.17;82.79
13713;DHT22;6928;50.546;7.120;2023-02-17T08:11:51;12.15;82.85
13713;DHT22;6928;50.546;7.120;2023-02-17T08:14:35;12.20;82.76
13713;DHT22;6928;50.546;7.120;2023-02-17T08:17:03;12.25;82.73
13713;DHT22;6928;50.546;7.120;2023-02-17T08:19:30;12.25;82.76
13713;DHT22;6928;50.546;7.120;2023-02-17T08:21:57;12.29;82.47
13713;DHT22;6928;50.546;7.120;2023-02-17T08:24:24;12.31;82.34
13713;DHT22;6928;50.546;7.120;2023-02-17T08:26:52;12.32;82.52
13713;DHT22;6928;50.546;7.120;2023-02-17T08:29:20;12.39;82.32
13713;DHT22;6928;50.546;7.120;2023-02-17T08:31:51;12.45;82.07
13713;DHT22;6928;50.546;7.120;2023-02-17T08:34:18;12.44;82.15
13713;DHT22;6928;50.546;7.120;2023-02-17T08:36:45;12.50;82.02
13713;DHT22;6928;50.546;7.120;2023-02-17T08:39:15;12.66;81.75
13713;DHT22;6928;50.546;7.120;2023-02-17T08:41:43;12.77;81.53
13713;DHT22;6928;50.546;7.120;2023-02-17T08:44:15;12.84;81.55
13713;DHT22;6928;50.546;7.120;2023-02-17T08:46:43;12.96;81.04
13713;DHT22;6928;50.546;7.120;2023-02-17T08:49:12;12.99;80.79
13713;DHT22;6928;50.546;7.120;2023-02-17T08:51:39;12.94;81.06
13713;DHT22;6928;50.546;7.120;2023-02-17T08:54:08;12.93;81.06
13713;DHT22;6928;50.546;7.120;2023-02-17T08:56:37;12.99;80.70
13713;DHT22;6928;50.546;7.120;2023-02-17T08:59:04;12.93;80.87
13713;DHT22;6928;50.546;7.120;2023-02-17T09:01:33;12.93;80.97
13713;DHT22;6928;50.546;7.120;2023-02-17T09:04:02;12.96;80.92
13713;DHT22;6928;50.546;7.120;2023-02-17T09:06:32;12.94;80.80
13713;DHT22;6928;50.546;7.120;2023-02-17T09:08:59;13.00;80.67
13713;DHT22;6928;50.546;7.120;2023-02-17T09:11:26;13.08;80.35
13713;DHT22;6928;50.546;7.120;2023-02-17T09:13:53;13.10;80.46
13713;DHT22;6928;50.546;7.120;2023-02-17T09:16:20;13.11;80.53
13713;DHT22;6928;50.546;7.120;2023-02-17T09:18:50;13.11;80.47
13713;DHT22;6928;50.546;7.120;2023-02-17T09:21:18;13.23;80.13
13713;DHT22;6928;50.546;7.120;2023-02-17T09:23:46;13.24;80.18
13713;DHT22;6928;50.546;7.120;2023-02-17T09:26:15;13.24;80.40
13713;DHT22;6928;50.546;7.120;2023-02-17T09:28:44;13.17;80.61
13713;DHT22;6928;50.546;7.120;2023-02-17T09:31:14;13.23;80.66
13713;DHT22;6928;50.546;7.120;2023-02-17T09:33:42;13.20;80.71
13713;DHT22;6928;50.546;7.120;2023-02-17T09:36:14;13.20;80.66
13713;DHT22;6928;50.546;7.120;2023-02-17T09:38:41;13.24;80.53
13713;DHT22;6928;50.546;7.120;2023-02-17T09:41:17;13.31;80.41
13713;DHT22;6928;50.546;7.120;2023-02-17T09:43:45;13.31;80.43
13713;DHT22;6928;50.546;7.120;2023-02-17T09:46:15;13.36;80.17
13713;DHT22;6928;50.546;7.120;2023-02-17T09:48:45;13.39;80.02
13713;DHT22;6928;50.546;7.120;2023-02-17T09:51:21;13.42;80.11
13713;DHT22;6928;50.546;7.120;2023-02-17T09:53:58;13.39;80.20
13713;DHT22;6928;50.546;7.120;2023-02-17T09:56:33;13.41;80.10
13713;DHT22;6928;50.546;7.120;2023-02-17T09:59:05;13.44;80.15
13713;DHT22;6928;50.546;7.120;2023-02-17T10:01:34;13.54;79.79
13713;DHT22;6928;50.546;7.120;2023-02-17T10:04:06;13.61;79.65
13713;DHT22;6928;50.546;7.120;2023-02-17T10:06:38;13.73;79.31
13713;DHT22;6928;50.546;7.120;2023-02-17T10:09:11;13.89;78.63
13713;DHT22;6928;50.546;7.120;2023-02-17T10:11:45;13.99;78.45
13713;DHT22;6928;50.546;7.120;2023-02-17T10:14:20;14.00;78.39
13713;DHT22;6928;50.546;7.120;2023-02-17T10:16:52;14.02;78.32
13713;DHT22;6928;50.546;7.120;2023-02-17T10:19:26;13.99;78.27
13713;DHT22;6928;50.546;7.120;2023-02-17T10:22:05;13.97;78.44
13713;DHT22;6928;50.546;7.120;2023-02-17T10:24:32;14.00;78.13
13713;DHT22;6928;50.546;7.120;2023-02-17T10:27:27;14.09;78.06
13713;DHT22;6928;50.546;7.120;2023-02-17T10:30:08;14.16;78.26
13713;DHT22;6928;50.546;7.120;2023-02-17T10:32:52;14.16;77.88
13713;DHT22;6928;50.546;7.120;2023-02-17T10:35:40;14.34;77.52
13713;DHT22;6928;50.546;7.120;2023-02-17T10:38:16;14.37;77.41
13713;DHT22;6928;50.546;7.120;2023-02-17T10:40:46;14.42;77.19
13713;DHT22;6928;50.546;7.120;2023-02-17T10:43:20;14.45;76.97
13713;DHT22;6928;50.546;7.120;2023-02-17T10:45:48;14.67;76.49
13713;DHT22;6928;50.546;7.120;2023-02-17T10:48:19;14.64;76.54
13713;DHT22;6928;50.546;7.120;2023-02-17T10:50:48;14.83;76.17
13713;DHT22;6928;50.546;7.120;2023-02-17T10:53:18;14.91;75.87
13713;DHT22;6928;50.546;7.120;2023-02-17T10:55:54;14.98;75.49
13713;DHT22;6928;50.546;7.120;2023-02-17T10:58:29;15.03;75.52
13713;DHT22;6928;50.546;7.120;2023-02-17T11:00:57;15.23;75.24
13713;DHT22;6928;50.546;7.120;2023-02-17T11:03:28;15.16;75.32
13713;DHT22;6928;50.546;7.120;2023-02-17T11:05:57;15.19;74.87
13713;DHT22;6928;50.546;7.120;2023-02-17T11:08:33;15.32;75.09
13713;DHT22;6928;50.546;7.120;2023-02-17T11:11:03;15.37;74.72
13713;DHT22;6928;50.546;7.120;2023-02-17T11:13:37;15.40;74.69
13713;DHT22;6928;50.546;7.120;2023-02-17T11:16:05;15.41;74.90
13713;DHT22;6928;50.546;7.120;2023-02-17T11:18:34;15.41;74.56
13713;DHT22;6928;50.546;7.120;2023-02-17T11:21:07;15.53;74.12
13713;DHT22;6928;50.546;7.120;2023-02-17T11:23:46;15.67;74.23
13713;DHT22;6928;50.546;7.120;2023-02-17T11:26:17;15.57;74.07
13713;DHT22;6928;50.546;7.120;2023-02-17T11:28:47;15.54;74.19
13713;DHT22;6928;50.546;7.120;2023-02-17T11:31:27;15.78;73.63
13713;DHT22;6928;50.546;7.120;2023-02-17T11:33:54;15.62;74.04
13713;DHT22;6928;50.546;7.120;2023-02-17T11:36:25;15.46;74.37
13713;DHT22;6928;50.546;7.120;2023-02-17T11:38:54;15.70;73.66
13713;DHT22;6928;50.546;7.120;2023-02-17T11:41:22;15.64;73.76
13713;DHT22;6928;50.546;7.120;2023-02-17T11:43:54;15.71;73.56
13713;DHT22;6928;50.546;7.120;2023-02-17T11:46:30;15.65;73.84
13713;DHT22;6928;50.546;7.120;2023-02-17T11:49:32;15.72;73.34
13713;DHT22;6928;50.546;7.120;2023-02-17T11:52:18;15.68;73.52
13713;DHT22;6928;50.546;7.120;2023-02-17T11:55:09;15.68;73.41
13713;DHT22;6928;50.546;7.120;2023-02-17T11:57:41;15.62;73.57
13713;DHT22;6928;50.546;7.120;2023-02-17T12:00:17;15.77;73.55
13713;DHT22;6928;50.546;7.120;2023-02-17T12:03:11;15.75;73.56
13713;DHT22;6928;50.546;7.120;2023-02-17T12:05:54;15.72;73.39
13713;DHT22;6928;50.546;7.120;2023-02-17T12:08:30;15.71;73.68
13713;DHT22;6928;50.546;7.120;2023-02-17T12:11:08;15.81;73.87
13713;DHT22;6928;50.546;7.120;2023-02-17T12:13:53;15.78;73.53
13713;DHT22;6928;50.546;7.120;2023-02-17T12:16:34;15.77;73.57
13713;DHT22;6928;50.546;7.120;2023-02-17T12:19:21;15.75;73.62
13713;DHT22;6928;50.546;7.120;2023-02-17T12:22:02;15.74;73.71
13713;DHT22;6928;50.546;7.120;2023-02-17T12:27:42;15.88;73.42
13713;DHT22;6928;50.546;7.120;2023-02-17T12:30:25;15.98;72.93
13713;DHT22;6928;50.546;7.120;2023-02-17T12:33:12;15.98;72.96
13713;DHT22;6928;50.546;7.120;2023-02-17T12:35:47;16.11;72.79
13713;DHT22;6928;50.546;7.120;2023-02-17T12:38:23;16.16;72.42
13713;DHT22;6928;50.546;7.120;2023-02-17T12:40:54;16.08;72.77
13713;DHT22;6928;50.546;7.120;2023-02-17T12:43:29;16.23;72.32
13713;DHT22;6928;50.546;7.120;2023-02-17T12:45:59;16.28;72.38
13713;DHT22;6928;50.546;7.120;2023-02-17T12:48:32;16.42;72.02
13713;DHT22;6928;50.546;7.120;2023-02-17T12:51:06;16.60;71.56
13713;DHT22;6928;50.546;7.120;2023-02-17T12:53:44;16.64;71.21
13713;DHT22;6928;50.546;7.120;2023-02-17T12:56:46;16.68;71.15
13713;DHT22;6928;50.546;7.120;2023-02-17T12:59:18;16.61;70.99
13713;DHT22;6928;50.546;7.120;2023-02-17T13:01:54;16.65;71.41
13713;DHT22;6928;50.546;7.120;2023-02-17T13:04:23;16.64;70.96
13713;DHT22;6928;50.546;7.120;2023-02-17T13:06:58;16.71;70.75
13713;DHT22;6928;50.546;7.120;2023-02-17T13:09:32;16.85;71.01
13713;DHT22;6928;50.546;7.120;2023-02-17T13:12:16;17.08;70.50
13713;DHT22;6928;50.546;7.120;2023-02-17T13:14:57;17.19;69.64
13713;DHT22;6928;50.546;7.120;2023-02-17T13:17:27;17.00;69.31
13713;DHT22;6928;50.546;7.120;2023-02-17T13:20:28;17.16;69.02
13713;DHT22;6928;50.546;7.120;2023-02-17T13:23:06;17.16;69.32
13713;DHT22;6928;50.546;7.120;2023-02-17T13:25:35;17.32;68.82
13713;DHT22;6928;50.546;7.120;2023-02-17T13:28:18;17.21;68.90
13713;DHT22;6928;50.546;7.120;2023-02-17T13:30:46;17.39;68.51
13713;DHT22;6928;50.546;7.120;2023-02-17T13:33:29;17.47;68.46
13713;DHT22;6928;50.546;7.120;2023-02-17T13:35:58;17.59;68.42
13713;DHT22;6928;50.546;7.120;2023-02-17T13:38:28;17.39;68.28
13713;DHT22;6928;50.546;7.120;2023-02-17T13:40:59;17.23;68.50
13713;DHT22;6928;50.546;7.120;2023-02-17T13:43:28;17.56;67.84
13713;DHT22;6928;50.546;7.120;2023-02-17T13:45:59;17.47;68.30
13713;DHT22;6928;50.546;7.120;2023-02-17T13:48:29;17.49;67.91
13713;DHT22;6928;50.546;7.120;2023-02-17T13:50:58;17.35;68.07
13713;DHT22;6928;50.546;7.120;2023-02-17T13:53:29;17.26;68.55
13713;DHT22;6928;50.546;7.120;2023-02-17T13:55:59;17.63;68.28
13713;DHT22;6928;50.546;7.120;2023-02-17T13:58:29;17.28;68.03
13713;DHT22;6928;50.546;7.120;2023-02-17T14:00:59;17.42;67.89
13713;DHT22;6928;50.546;7.120;2023-02-17T14:03:28;17.42;67.51
13713;DHT22;6928;50.546;7.120;2023-02-17T14:05:56;17.36;67.81
13713;DHT22;6928;50.546;7.120;2023-02-17T14:08:31;17.18;68.21
13713;DHT22;6928;50.546;7.120;2023-02-17T14:11:06;17.25;67.74
13713;DHT22;6928;50.546;7.120;2023-02-17T14:13:34;17.42;67.37
13713;DHT22;6928;50.546;7.120;2023-02-17T14:16:26;17.43;67.72
13713;DHT22;6928;50.546;7.120;2023-02-17T14:19:08;17.38;67.25
13713;DHT22;6928;50.546;7.120;2023-02-17T14:21:40;17.42;67.02
13713;DHT22;6928;50.546;7.120;2023-02-17T14:24:25;17.45;67.07
13713;DHT22;6928;50.546;7.120;2023-02-17T14:26:57;17.30;67.20
13713;DHT22;6928;50.546;7.120;2023-02-17T14:29:25;17.47;66.70
13713;DHT22;6928;50.546;7.120;2023-02-17T14:31:53;17.21;66.87
13713;DHT22;6928;50.546;7.120;2023-02-17T14:34:28;16.98;67.71
13713;DHT22;6928;50.546;7.120;2023-02-17T14:37:07;17.22;67.09
13713;DHT22;6928;50.546;7.120;2023-02-17T14:39:34;17.14;67.05
13713;DHT22;6928;50.546;7.120;2023-02-17T14:42:01;17.16;67.09
13713;DHT22;6928;50.546;7.120;2023-02-17T14:44:28;17.28;66.80
13713;DHT22;6928;50.546;7.120;2023-02-17T14:46:56;17.15;66.97
13713;DHT22;6928;50.546;7.120;2023-02-17T14:49:23;17.08;67.25
13713;DHT22;6928;50.546;7.120;2023-02-17T14:51:50;17.05;66.82
13713;DHT22;6928;50.546;7.120;2023-02-17T14:54:17;17.09;66.47
13713;DHT22;6928;50.546;7.120;2023-02-17T14:56:50;16.91;66.93
13713;DHT22;6928;50.546;7.120;2023-02-17T14:59:18;16.91;66.49
13713;DHT22;6928;50.546;7.120;2023-02-17T15:01:45;16.91;66.48
13713;DHT22;6928;50.546;7.120;2023-02-17T15:04:13;16.91;66.57
13713;DHT22;6928;50.546;7.120;2023-02-17T15:06:42;16.85;67.11
13713;DHT22;6928;50.546;7.120;2023-02-17T15:09:16;16.80;66.83
13713;DHT22;6928;50.546;7.120;2023-02-17T15:11:46;16.78;66.40
13713;DHT22;6928;50.546;7.120;2023-02-17T15:14:16;16.71;66.68
13713;DHT22;6928;50.546;7.120;2023-02-17T15:16:44;16.65;66.72
13713;DHT22;6928;50.546;7.120;2023-02-17T15:19:13;16.60;66.27
13713;DHT22;6928;50.546;7.120;2023-02-17T15:21:45;16.63;66.17
13713;DHT22;6928;50.546;7.120;2023-02-17T15:24:15;16.59;65.71
13713;DHT22;6928;50.546;7.120;2023-02-17T15:26:42;16.53;65.91
13713;DHT22;6928;50.546;7.120;2023-02-17T15:29:14;16.50;65.89
13713;DHT22;6928;50.546;7.120;2023-02-17T15:31:42;16.33;66.08
13713;DHT22;6928;50.546;7.120;2023-02-17T15:34:15;16.26;66.17
13713;DHT22;6928;50.546;7.120;2023-02-17T15:36:43;16.36;65.99
13713;DHT22;6928;50.546;7.120;2023-02-17T15:39:12;16.30;66.33
13713;DHT22;6928;50.546;7.120;2023-02-17T15:41:40;16.28;66.61
13713;DHT22;6928;50.546;7.120;2023-02-17T15:44:12;16.20;66.96
13713;DHT22;6928;50.546;7.120;2023-02-17T15:46:41;16.22;66.81
13713;DHT22;6928;50.546;7.120;2023-02-17T15:49:10;16.23;66.35
13713;DHT22;6928;50.546;7.120;2023-02-17T15:51:38;16.22;66.17
13713;DHT22;6928;50.546;7.120;2023-02-17T15:54:05;16.16;66.51
13713;DHT22;6928;50.546;7.120;2023-02-17T15:56:39;16.12;66.56
13713;DHT22;6928;50.546;7.120;2023-02-17T15:59:11;16.05;66.66
13713;DHT22;6928;50.546;7.120;2023-02-17T16:01:38;16.02;66.70
13713;DHT22;6928;50.546;7.120;2023-02-17T16:04:05;16.01;66.84
13713;DHT22;6928;50.546;7.120;2023-02-17T16:06:32;15.91;67.32
13713;DHT22;6928;50.546;7.120;2023-02-17T16:09:00;15.88;67.35
13713;DHT22;6928;50.546;7.120;2023-02-17T16:11:27;15.84;67.56
13713;DHT22;6928;50.546;7.120;2023-02-17T16:13:54;15.89;67.21
13713;DHT22;6928;50.546;7.120;2023-02-17T16:16:24;15.84;67.48
13713;DHT22;6928;50.546;7.120;2023-02-17T16:18:53;15.82;67.38